sensor_id;sensor_type;location;lat;lon;timestamp;P1;durP1;ratioP1;P2;durP2;ratioP2
70757;SDS011;59316;52.964;7.102;2022-12-17T00:04:37;118.90;;;31.27;;
70757;SDS011;59316;52.964;7.102;2022-12-17T00:09:39;124.85;;;31.02;;
70757;SDS011;59316;52.964;7.102;2022-12-17T00:14:44;130.32;;;34.90;;
70757;SDS011;59316;52.964;7.102;2022-12-17T00:19:46;145.43;;;33.75;;
70757;SDS011;59316;52.964;7.102;2022-12-17T00:24:48;127.45;;;33.15;;
70757;SDS011;59316;52.964;7.102;2022-12-17T00:29:50;139.68;;;32.90;;
70757;SDS011;59316;52.964;7.102;2022-12-17T00:34:52;124.03;;;34.53;;
70757;SDS011;59316;52.964;7.102;2022-12-17T00:39:54;117.93;;;31.25;;
70757;SDS011;59316;52.964;7.102;2022-12-17T00:45:02;114.70;;;29.98;;
70757;SDS011;59316;52.964;7.102;2022-12-17T00:50:04;115.50;;;30.10;;
70757;SDS011;59316;52.964;7.102;2022-12-17T00:55:06;131.43;;;30.27;;
70757;SDS011;59316;52.964;7.102;2022-12-17T01:00:08;129.13;;;32.00;;
70757;SDS011;59316;52.964;7.102;2022-12-17T01:05:11;128.68;;;32.33;;
70757;SDS011;59316;52.964;7.102;2022-12-17T01:10:13;112.37;;;30.53;;
70757;SDS011;59316;52.964;7.102;2022-12-17T01:15:15;115.18;;;28.58;;
70757;SDS011;59316;52.964;7.102;2022-12-17T01:20:17;142.70;;;34.70;;
70757;SDS011;59316;52.964;7.102;2022-12-17T01:25:21;130.65;;;31.92;;
70757;SDS011;59316;52.964;7.102;2022-12-17T01:30:22;147.18;;;32.53;;
70757;SDS011;59316;52.964;7.102;2022-12-17T01:35:24;138.93;;;33.42;;
70757;SDS011;59316;52.964;7.102;2022-12-17T01:40:26;135.05;;;33.15;;
70757;SDS011;59316;52.964;7.102;2022-12-17T01:45:35;155.23;;;33.25;;
70757;SDS011;59316;52.964;7.102;2022-12-17T01:50:40;149.60;;;34.90;;
70757;SDS011;59316;52.964;7.102;2022-12-17T01:55:44;157.63;;;35.80;;
70757;SDS011;59316;52.964;7.102;2022-12-17T02:00:46;148.70;;;35.03;;
70757;SDS011;59316;52.964;7.102;2022-12-17T02:05:51;147.63;;;34.80;;
70757;SDS011;59316;52.964;7.102;2022-12-17T02:10:59;151.82;;;35.53;;
70757;SDS011;59316;52.964;7.102;2022-12-17T02:16:08;151.20;;;33.75;;
70757;SDS011;59316;52.964;7.102;2022-12-17T02:21:13;126.50;;;31.48;;
70757;SDS011;59316;52.964;7.102;2022-12-17T02:31:36;173.73;;;35.80;;
70757;SDS011;59316;52.964;7.102;2022-12-17T02:36:40;186.27;;;36.80;;
70757;SDS011;59316;52.964;7.102;2022-12-17T02:41:46;156.98;;;34.72;;
70757;SDS011;59316;52.964;7.102;2022-12-17T02:46:52;171.18;;;37.28;;
70757;SDS011;59316;52.964;7.102;2022-12-17T02:51:56;151.63;;;33.45;;
70757;SDS011;59316;52.964;7.102;2022-12-17T02:56:58;163.70;;;35.28;;
70757;SDS011;59316;52.964;7.102;2022-12-17T03:02:00;166.40;;;38.15;;
70757;SDS011;59316;52.964;7.102;2022-12-17T03:07:02;144.63;;;33.75;;
70757;SDS011;59316;52.964;7.102;2022-12-17T03:12:04;145.02;;;33.22;;
70757;SDS011;59316;52.964;7.102;2022-12-17T03:17:06;161.15;;;34.30;;
70757;SDS011;59316;52.964;7.102;2022-12-17T03:22:08;157.32;;;32.88;;
70757;SDS011;59316;52.964;7.102;2022-12-17T03:27:10;137.98;;;33.10;;
70757;SDS011;59316;52.964;7.102;2022-12-17T03:32:11;152.93;;;34.28;;
70757;SDS011;59316;52.964;7.102;2022-12-17T03:37:13;149.50;;;35.28;;
70757;SDS011;59316;52.964;7.102;2022-12-17T03:42:15;137.55;;;32.47;;
70757;SDS011;59316;52.964;7.102;2022-12-17T03:47:17;137.65;;;33.22;;
70757;SDS011;59316;52.964;7.102;2022-12-17T03:52:19;148.85;;;35.40;;
70757;SDS011;59316;52.964;7.102;2022-12-17T03:57:21;173.55;;;36.35;;
70757;SDS011;59316;52.964;7.102;2022-12-17T04:02:23;142.18;;;34.30;;
70757;SDS011;59316;52.964;7.102;2022-12-17T04:07:25;148.98;;;36.15;;
70757;SDS011;59316;52.964;7.102;2022-12-17T04:12:27;148.27;;;32.28;;
70757;SDS011;59316;52.964;7.102;2022-12-17T04:17:28;139.73;;;34.75;;
70757;SDS011;59316;52.964;7.102;2022-12-17T04:22:30;143.63;;;31.40;;
70757;SDS011;59316;52.964;7.102;2022-12-17T04:27:32;119.70;;;29.83;;
70757;SDS011;59316;52.964;7.102;2022-12-17T04:32:34;137.57;;;31.92;;
70757;SDS011;59316;52.964;7.102;2022-12-17T04:37:36;136.73;;;30.80;;
70757;SDS011;59316;52.964;7.102;2022-12-17T04:42:38;127.53;;;30.40;;
70757;SDS011;59316;52.964;7.102;2022-12-17T04:47:40;142.88;;;32.95;;
70757;SDS011;59316;52.964;7.102;2022-12-17T04:52:41;129.15;;;30.98;;
70757;SDS011;59316;52.964;7.102;2022-12-17T04:57:43;129.82;;;30.92;;
70757;SDS011;59316;52.964;7.102;2022-12-17T05:02:45;127.32;;;29.05;;
70757;SDS011;59316;52.964;7.102;2022-12-17T05:07:47;117.30;;;27.65;;
70757;SDS011;59316;52.964;7.102;2022-12-17T05:12:58;112.68;;;26.60;;
70757;SDS011;59316;52.964;7.102;2022-12-17T05:18:04;107.90;;;24.88;;
70757;SDS011;59316;52.964;7.102;2022-12-17T05:23:08;102.57;;;24.45;;
70757;SDS011;59316;52.964;7.102;2022-12-17T05:28:09;99.10;;;26.30;;
70757;SDS011;59316;52.964;7.102;2022-12-17T05:33:11;90.72;;;24.00;;
70757;SDS011;59316;52.964;7.102;2022-12-17T05:38:13;100.07;;;24.13;;
70757;SDS011;59316;52.964;7.102;2022-12-17T05:43:15;98.35;;;23.90;;
70757;SDS011;59316;52.964;7.102;2022-12-17T05:48:17;105.57;;;24.63;;
70757;SDS011;59316;52.964;7.102;2022-12-17T05:53:18;90.32;;;23.10;;
70757;SDS011;59316;52.964;7.102;2022-12-17T05:58:20;102.38;;;25.70;;
70757;SDS011;59316;52.964;7.102;2022-12-17T06:03:22;98.18;;;24.27;;
70757;SDS011;59316;52.964;7.102;2022-12-17T06:08:24;107.43;;;24.45;;
70757;SDS011;59316;52.964;7.102;2022-12-17T06:13:26;94.82;;;22.85;;
70757;SDS011;59316;52.964;7.102;2022-12-17T06:18:28;96.53;;;24.45;;
70757;SDS011;59316;52.964;7.102;2022-12-17T06:23:30;114.45;;;27.13;;
70757;SDS011;59316;52.964;7.102;2022-12-17T06:28:32;115.78;;;26.13;;
70757;SDS011;59316;52.964;7.102;2022-12-17T06:33:33;99.00;;;25.60;;
70757;SDS011;59316;52.964;7.102;2022-12-17T06:38:36;121.07;;;29.55;;
70757;SDS011;59316;52.964;7.102;2022-12-17T06:43:38;101.07;;;24.55;;
70757;SDS011;59316;52.964;7.102;2022-12-17T06:48:40;98.13;;;26.55;;
70757;SDS011;59316;52.964;7.102;2022-12-17T06:53:41;122.70;;;27.20;;
70757;SDS011;59316;52.964;7.102;2022-12-17T06:58:43;112.45;;;25.63;;
70757;SDS011;59316;52.964;7.102;2022-12-17T07:03:45;111.35;;;24.95;;
70757;SDS011;59316;52.964;7.102;2022-12-17T07:08:47;120.40;;;25.52;;
70757;SDS011;59316;52.964;7.102;2022-12-17T07:13:49;109.47;;;24.55;;
70757;SDS011;59316;52.964;7.102;2022-12-17T07:18:51;105.50;;;26.25;;
70757;SDS011;59316;52.964;7.102;2022-12-17T07:23:53;128.55;;;27.17;;
70757;SDS011;59316;52.964;7.102;2022-12-17T07:28:54;119.10;;;28.17;;
70757;SDS011;59316;52.964;7.102;2022-12-17T07:33:56;130.07;;;27.60;;
70757;SDS011;59316;52.964;7.102;2022-12-17T07:38:58;124.90;;;29.48;;
70757;SDS011;59316;52.964;7.102;2022-12-17T07:44:00;124.40;;;25.73;;
70757;SDS011;59316;52.964;7.102;2022-12-17T07:49:02;118.10;;;26.87;;
70757;SDS011;59316;52.964;7.102;2022-12-17T07:54:04;134.07;;;27.80;;
70757;SDS011;59316;52.964;7.102;2022-12-17T07:59:06;115.45;;;24.75;;
70757;SDS011;59316;52.964;7.102;2022-12-17T08:04:07;89.00;;;23.70;;
70757;SDS011;59316;52.964;7.102;2022-12-17T08:09:09;107.40;;;24.23;;
70757;SDS011;59316;52.964;7.102;2022-12-17T08:14:11;105.15;;;23.63;;
70757;SDS011;59316;52.964;7.102;2022-12-17T08:19:13;103.30;;;23.90;;
70757;SDS011;59316;52.964;7.102;2022-12-17T08:24:15;109.40;;;25.70;;
70757;SDS011;59316;52.964;7.102;2022-12-17T08:29:17;103.50;;;24.10;;
70757;SDS011;59316;52.964;7.102;2022-12-17T08:34:18;102.75;;;22.48;;
70757;SDS011;59316;52.964;7.102;2022-12-17T08:39:20;110.72;;;23.40;;
70757;SDS011;59316;52.964;7.102;2022-12-17T08:44:22;108.32;;;23.08;;
70757;SDS011;59316;52.964;7.102;2022-12-17T08:49:24;100.63;;;23.02;;
70757;SDS011;59316;52.964;7.102;2022-12-17T08:54:26;96.47;;;22.70;;
70757;SDS011;59316;52.964;7.102;2022-12-17T08:59:27;99.18;;;23.60;;
70757;SDS011;59316;52.964;7.102;2022-12-17T09:04:29;106.70;;;22.63;;
70757;SDS011;59316;52.964;7.102;2022-12-17T09:09:31;97.43;;;22.67;;
70757;SDS011;59316;52.964;7.102;2022-12-17T09:14:33;96.75;;;23.85;;
70757;SDS011;59316;52.964;7.102;2022-12-17T09:19:35;97.65;;;23.27;;
70757;SDS011;59316;52.964;7.102;2022-12-17T09:24:37;87.07;;;22.60;;
70757;SDS011;59316;52.964;7.102;2022-12-17T09:29:38;82.93;;;22.27;;
70757;SDS011;59316;52.964;7.102;2022-12-17T09:34:40;83.20;;;23.42;;
70757;SDS011;59316;52.964;7.102;2022-12-17T09:39:42;87.60;;;23.33;;
70757;SDS011;59316;52.964;7.102;2022-12-17T09:44:49;72.47;;;21.30;;
70757;SDS011;59316;52.964;7.102;2022-12-17T09:49:52;76.85;;;23.13;;
70757;SDS011;59316;52.964;7.102;2022-12-17T09:54:54;84.35;;;22.50;;
70757;SDS011;59316;52.964;7.102;2022-12-17T10:00:15;87.88;;;23.77;;
70757;SDS011;59316;52.964;7.102;2022-12-17T10:05:24;85.45;;;22.42;;
70757;SDS011;59316;52.964;7.102;2022-12-17T10:10:29;92.88;;;21.95;;
70757;SDS011;59316;52.964;7.102;2022-12-17T10:15:31;87.80;;;22.83;;
70757;SDS011;59316;52.964;7.102;2022-12-17T10:20:37;100.32;;;25.52;;
70757;SDS011;59316;52.964;7.102;2022-12-17T10:25:39;86.25;;;23.58;;
70757;SDS011;59316;52.964;7.102;2022-12-17T10:30:50;100.72;;;26.52;;
70757;SDS011;59316;52.964;7.102;2022-12-17T10:35:52;109.55;;;27.15;;
70757;SDS011;59316;52.964;7.102;2022-12-17T10:40:53;103.45;;;23.55;;
70757;SDS011;59316;52.964;7.102;2022-12-17T10:45:55;100.80;;;27.00;;
70757;SDS011;59316;52.964;7.102;2022-12-17T10:50:57;104.77;;;25.10;;
70757;SDS011;59316;52.964;7.102;2022-12-17T10:55:59;103.95;;;25.63;;
70757;SDS011;59316;52.964;7.102;2022-12-17T11:01:01;105.72;;;25.38;;
70757;SDS011;59316;52.964;7.102;2022-12-17T11:06:04;96.63;;;25.23;;
70757;SDS011;59316;52.964;7.102;2022-12-17T11:11:06;96.38;;;24.88;;
70757;SDS011;59316;52.964;7.102;2022-12-17T11:16:23;101.60;;;24.42;;
70757;SDS011;59316;52.964;7.102;2022-12-17T11:21:27;92.90;;;25.42;;
70757;SDS011;59316;52.964;7.102;2022-12-17T11:26:31;100.93;;;28.02;;
70757;SDS011;59316;52.964;7.102;2022-12-17T11:36:41;87.55;;;25.70;;
70757;SDS011;59316;52.964;7.102;2022-12-17T11:41:53;91.13;;;25.85;;
70757;SDS011;59316;52.964;7.102;2022-12-17T12:03:03;75.05;;;22.50;;
70757;SDS011;59316;52.964;7.102;2022-12-17T12:13:36;86.25;;;23.98;;
70757;SDS011;59316;52.964;7.102;2022-12-17T12:18:54;87.20;;;24.20;;
70757;SDS011;59316;52.964;7.102;2022-12-17T12:34:16;76.40;;;22.35;;
70757;SDS011;59316;52.964;7.102;2022-12-17T12:39:25;85.50;;;22.73;;
70757;SDS011;59316;52.964;7.102;2022-12-17T12:49:55;88.85;;;23.30;;
70757;SDS011;59316;52.964;7.102;2022-12-17T12:55:00;79.40;;;22.42;;
70757;SDS011;59316;52.964;7.102;2022-12-17T13:00:02;71.90;;;21.17;;
70757;SDS011;59316;52.964;7.102;2022-12-17T13:05:15;75.95;;;21.45;;
70757;SDS011;59316;52.964;7.102;2022-12-17T13:10:25;77.90;;;21.40;;
70757;SDS011;59316;52.964;7.102;2022-12-17T13:15:35;76.75;;;21.35;;
70757;SDS011;59316;52.964;7.102;2022-12-17T13:20:38;85.78;;;22.27;;
70757;SDS011;59316;52.964;7.102;2022-12-17T13:25:40;84.50;;;22.23;;
70757;SDS011;59316;52.964;7.102;2022-12-17T13:30:42;79.00;;;23.13;;
70757;SDS011;59316;52.964;7.102;2022-12-17T13:46:24;85.25;;;20.88;;
70757;SDS011;59316;52.964;7.102;2022-12-17T13:51:28;80.82;;;21.55;;
70757;SDS011;59316;52.964;7.102;2022-12-17T13:56:31;76.03;;;22.00;;
70757;SDS011;59316;52.964;7.102;2022-12-17T14:01:42;78.22;;;20.73;;
70757;SDS011;59316;52.964;7.102;2022-12-17T14:06:44;83.30;;;22.13;;
70757;SDS011;59316;52.964;7.102;2022-12-17T14:11:46;81.80;;;20.15;;
70757;SDS011;59316;52.964;7.102;2022-12-17T14:16:49;84.85;;;21.38;;
70757;SDS011;59316;52.964;7.102;2022-12-17T14:21:51;86.72;;;22.35;;
70757;SDS011;59316;52.964;7.102;2022-12-17T14:26:55;80.18;;;19.95;;
70757;SDS011;59316;52.964;7.102;2022-12-17T14:31:58;80.95;;;20.50;;
70757;SDS011;59316;52.964;7.102;2022-12-17T14:37:01;87.50;;;20.45;;
70757;SDS011;59316;52.964;7.102;2022-12-17T14:42:21;81.68;;;19.52;;
70757;SDS011;59316;52.964;7.102;2022-12-17T14:47:29;79.43;;;19.25;;
70757;SDS011;59316;52.964;7.102;2022-12-17T14:57:42;79.55;;;19.10;;
70757;SDS011;59316;52.964;7.102;2022-12-17T15:02:45;79.00;;;19.67;;
70757;SDS011;59316;52.964;7.102;2022-12-17T15:07:50;89.10;;;20.00;;
70757;SDS011;59316;52.964;7.102;2022-12-17T15:12:52;96.28;;;20.15;;
70757;SDS011;59316;52.964;7.102;2022-12-17T15:17:54;94.40;;;19.90;;
70757;SDS011;59316;52.964;7.102;2022-12-17T15:22:56;92.03;;;20.25;;
70757;SDS011;59316;52.964;7.102;2022-12-17T15:27:58;113.28;;;22.23;;
70757;SDS011;59316;52.964;7.102;2022-12-17T15:32:59;102.63;;;22.75;;
70757;SDS011;59316;52.964;7.102;2022-12-17T15:38:02;97.03;;;19.95;;
70757;SDS011;59316;52.964;7.102;2022-12-17T15:43:04;98.18;;;22.70;;
70757;SDS011;59316;52.964;7.102;2022-12-17T15:53:09;102.22;;;23.10;;
70757;SDS011;59316;52.964;7.102;2022-12-17T15:58:10;105.72;;;21.75;;
70757;SDS011;59316;52.964;7.102;2022-12-17T16:03:12;113.47;;;23.20;;
70757;SDS011;59316;52.964;7.102;2022-12-17T16:08:14;113.20;;;24.33;;
70757;SDS011;59316;52.964;7.102;2022-12-17T16:13:16;124.68;;;25.17;;
70757;SDS011;59316;52.964;7.102;2022-12-17T16:18:18;122.50;;;24.80;;
70757;SDS011;59316;52.964;7.102;2022-12-17T16:23:20;137.52;;;29.40;;
70757;SDS011;59316;52.964;7.102;2022-12-17T16:28:22;128.23;;;27.55;;
70757;SDS011;59316;52.964;7.102;2022-12-17T16:33:23;132.15;;;28.05;;
70757;SDS011;59316;52.964;7.102;2022-12-17T16:38:25;141.10;;;29.23;;
70757;SDS011;59316;52.964;7.102;2022-12-17T16:43:30;140.93;;;33.75;;
70757;SDS011;59316;52.964;7.102;2022-12-17T16:48:36;145.23;;;30.52;;
70757;SDS011;59316;52.964;7.102;2022-12-17T16:53:39;156.75;;;32.45;;
70757;SDS011;59316;52.964;7.102;2022-12-17T16:58:41;127.25;;;28.02;;
70757;SDS011;59316;52.964;7.102;2022-12-17T17:03:42;125.43;;;28.48;;
70757;SDS011;59316;52.964;7.102;2022-12-17T17:08:44;123.82;;;27.55;;
70757;SDS011;59316;52.964;7.102;2022-12-17T17:13:47;131.05;;;28.85;;
70757;SDS011;59316;52.964;7.102;2022-12-17T17:18:49;140.18;;;30.65;;
70757;SDS011;59316;52.964;7.102;2022-12-17T17:23:58;129.43;;;28.65;;
70757;SDS011;59316;52.964;7.102;2022-12-17T17:29:01;130.75;;;32.03;;
70757;SDS011;59316;52.964;7.102;2022-12-17T17:34:09;135.67;;;29.80;;
70757;SDS011;59316;52.964;7.102;2022-12-17T17:39:11;138.82;;;32.75;;
70757;SDS011;59316;52.964;7.102;2022-12-17T17:44:13;143.68;;;30.55;;
70757;SDS011;59316;52.964;7.102;2022-12-17T17:49:15;131.88;;;31.80;;
70757;SDS011;59316;52.964;7.102;2022-12-17T17:54:17;121.70;;;29.60;;
70757;SDS011;59316;52.964;7.102;2022-12-17T17:59:19;123.22;;;31.58;;
70757;SDS011;59316;52.964;7.102;2022-12-17T18:04:21;137.35;;;32.35;;
70757;SDS011;59316;52.964;7.102;2022-12-17T18:09:22;138.52;;;34.83;;
70757;SDS011;59316;52.964;7.102;2022-12-17T18:14:24;141.80;;;32.13;;
70757;SDS011;59316;52.964;7.102;2022-12-17T18:19:26;140.43;;;35.15;;
70757;SDS011;59316;52.964;7.102;2022-12-17T18:24:28;144.27;;;33.30;;
70757;SDS011;59316;52.964;7.102;2022-12-17T18:29:30;160.93;;;36.05;;
70757;SDS011;59316;52.964;7.102;2022-12-17T18:34:32;146.73;;;34.80;;
70757;SDS011;59316;52.964;7.102;2022-12-17T18:39:33;128.80;;;32.30;;
70757;SDS011;59316;52.964;7.102;2022-12-17T18:44:36;141.07;;;33.33;;
70757;SDS011;59316;52.964;7.102;2022-12-17T18:54:40;130.43;;;31.92;;
70757;SDS011;59316;52.964;7.102;2022-12-17T18:59:42;138.52;;;33.25;;
70757;SDS011;59316;52.964;7.102;2022-12-17T19:04:44;149.95;;;32.92;;
70757;SDS011;59316;52.964;7.102;2022-12-17T19:09:45;146.77;;;36.67;;
70757;SDS011;59316;52.964;7.102;2022-12-17T19:14:47;141.75;;;34.05;;
70757;SDS011;59316;52.964;7.102;2022-12-17T19:19:49;136.13;;;34.45;;
70757;SDS011;59316;52.964;7.102;2022-12-17T19:24:51;164.23;;;35.28;;
70757;SDS011;59316;52.964;7.102;2022-12-17T19:29:53;155.05;;;34.47;;
70757;SDS011;59316;52.964;7.102;2022-12-17T19:34:55;172.68;;;38.28;;
70757;SDS011;59316;52.964;7.102;2022-12-17T19:39:56;156.07;;;34.17;;
70757;SDS011;59316;52.964;7.102;2022-12-17T19:44:58;138.15;;;32.13;;
70757;SDS011;59316;52.964;7.102;2022-12-17T19:50:00;157.95;;;34.35;;
70757;SDS011;59316;52.964;7.102;2022-12-17T19:55:02;144.15;;;32.20;;
70757;SDS011;59316;52.964;7.102;2022-12-17T20:00:04;162.93;;;31.85;;
70757;SDS011;59316;52.964;7.102;2022-12-17T20:05:13;145.50;;;33.15;;
70757;SDS011;59316;52.964;7.102;2022-12-17T20:10:15;165.73;;;33.22;;
70757;SDS011;59316;52.964;7.102;2022-12-17T20:15:17;132.98;;;30.05;;
70757;SDS011;59316;52.964;7.102;2022-12-17T20:20:18;148.75;;;32.90;;
70757;SDS011;59316;52.964;7.102;2022-12-17T20:25:20;130.00;;;30.85;;
70757;SDS011;59316;52.964;7.102;2022-12-17T20:30:23;135.77;;;30.05;;
70757;SDS011;59316;52.964;7.102;2022-12-17T20:35:25;128.30;;;31.20;;
70757;SDS011;59316;52.964;7.102;2022-12-17T20:40:27;145.60;;;30.95;;
70757;SDS011;59316;52.964;7.102;2022-12-17T20:45:29;132.45;;;29.95;;
70757;SDS011;59316;52.964;7.102;2022-12-17T20:50:31;128.50;;;30.65;;
70757;SDS011;59316;52.964;7.102;2022-12-17T20:55:33;127.68;;;28.88;;
70757;SDS011;59316;52.964;7.102;2022-12-17T21:00:34;121.68;;;29.60;;
70757;SDS011;59316;52.964;7.102;2022-12-17T21:05:36;112.25;;;28.45;;
70757;SDS011;59316;52.964;7.102;2022-12-17T21:10:38;101.10;;;26.30;;
70757;SDS011;59316;52.964;7.102;2022-12-17T21:15:46;111.15;;;30.02;;
70757;SDS011;59316;52.964;7.102;2022-12-17T21:20:59;106.75;;;28.52;;
70757;SDS011;59316;52.964;7.102;2022-12-17T21:26:06;107.70;;;25.42;;
70757;SDS011;59316;52.964;7.102;2022-12-17T21:31:18;123.18;;;32.00;;
70757;SDS011;59316;52.964;7.102;2022-12-17T21:36:20;115.80;;;27.75;;
70757;SDS011;59316;52.964;7.102;2022-12-17T21:41:24;115.63;;;28.07;;
70757;SDS011;59316;52.964;7.102;2022-12-17T21:46:26;117.63;;;28.65;;
70757;SDS011;59316;52.964;7.102;2022-12-17T21:51:29;98.70;;;27.90;;
70757;SDS011;59316;52.964;7.102;2022-12-17T21:56:31;108.25;;;28.67;;
70757;SDS011;59316;52.964;7.102;2022-12-17T22:01:33;108.07;;;28.77;;
70757;SDS011;59316;52.964;7.102;2022-12-17T22:06:35;108.57;;;28.93;;
70757;SDS011;59316;52.964;7.102;2022-12-17T22:11:50;110.72;;;30.58;;
70757;SDS011;59316;52.964;7.102;2022-12-17T22:16:52;112.00;;;29.95;;
70757;SDS011;59316;52.964;7.102;2022-12-17T22:21:54;91.15;;;28.30;;
70757;SDS011;59316;52.964;7.102;2022-12-17T22:26:58;103.57;;;31.42;;
70757;SDS011;59316;52.964;7.102;2022-12-17T22:32:00;112.32;;;31.25;;
70757;SDS011;59316;52.964;7.102;2022-12-17T22:37:03;105.43;;;30.10;;
70757;SDS011;59316;52.964;7.102;2022-12-17T22:42:25;104.13;;;29.42;;
70757;SDS011;59316;52.964;7.102;2022-12-17T22:47:47;113.15;;;30.02;;
70757;SDS011;59316;52.964;7.102;2022-12-17T22:52:49;118.43;;;31.07;;
70757;SDS011;59316;52.964;7.102;2022-12-17T22:57:52;122.35;;;32.92;;
70757;SDS011;59316;52.964;7.102;2022-12-17T23:02:54;118.40;;;28.90;;
70757;SDS011;59316;52.964;7.102;2022-12-17T23:07:56;104.20;;;30.15;;
70757;SDS011;59316;52.964;7.102;2022-12-17T23:12:58;124.20;;;30.83;;
70757;SDS011;59316;52.964;7.102;2022-12-17T23:18:01;106.73;;;30.93;;
70757;SDS011;59316;52.964;7.102;2022-12-17T23:23:03;117.15;;;27.75;;
70757;SDS011;59316;52.964;7.102;2022-12-17T23:28:05;119.38;;;30.45;;
70757;SDS011;59316;52.964;7.102;2022-12-17T23:33:07;127.05;;;30.00;;
70757;SDS011;59316;52.964;7.102;2022-12-17T23:38:09;118.03;;;29.63;;
70757;SDS011;59316;52.964;7.102;2022-12-17T23:43:11;126.47;;;31.47;;
70757;SDS011;59316;52.964;7.102;2022-12-17T23:48:18;128.18;;;28.58;;
70757;SDS011;59316;52.964;7.102;2022-12-17T23:53:20;116.97;;;27.65;;
70757;SDS011;59316;52.964;7.102;2022-12-17T23:58:22;130.50;;;30.17;;
